createdAt,value
2019-01-05T00:02:15.029Z,102983.11
2019-01-05T00:04:52.497Z,102980.38
2019-01-05T00:07:33.174Z,102976.52
2019-01-05T00:10:07.907Z,102972.67
2019-01-05T00:12:55.999Z,102970.17
2019-01-05T00:15:44.178Z,102968.66
2019-01-05T00:18:15.412Z,102972.23
2019-01-05T00:20:46.671Z,102973.11
2019-01-05T00:23:21.513Z,102965.29
2019-01-05T00:26:04.721Z,102969.72
2019-01-05T00:28:52.672Z,102977.11
2019-01-05T00:31:23.783Z,102959.45
2019-01-05T00:34:16.396Z,102965.86
2019-01-05T00:36:48.891Z,102966.35
2019-01-05T00:39:24.134Z,102973.62
2019-01-05T00:42:13.716Z,102970.16
2019-01-05T00:44:53.862Z,102981.61
2019-01-05T00:47:39.798Z,102984.41
2019-01-05T00:53:12.709Z,102979.45
2019-01-05T00:55:59.257Z,102981.79
2019-01-05T00:58:33.467Z,102982.77
2019-01-05T01:01:04.595Z,102989.17
2019-01-05T01:03:45.475Z,102988.06
2019-01-05T01:06:25.350Z,102982.84
2019-01-05T01:08:56.704Z,102988.48
2019-01-05T01:11:37.645Z,102985.28
2019-01-05T01:14:18.794Z,102991.69
2019-01-05T01:16:50.170Z,102988.11
2019-01-05T01:19:23.803Z,102996.45
2019-01-05T01:21:59.739Z,102994.37
2019-01-05T01:24:35.585Z,102995.34
2019-01-05T01:27:09.439Z,102992.24
2019-01-05T01:29:40.239Z,102991.09
2019-01-05T01:32:14.556Z,102988.59
2019-01-05T01:34:45.824Z,102991.02
2019-01-05T01:37:26.100Z,102994.92
2019-01-05T01:39:58.414Z,102996.00
2019-01-05T01:42:33.135Z,102992.55
2019-01-05T01:45:14.499Z,102995.58
2019-01-05T01:48:04.298Z,102994.91
2019-01-05T01:50:52.414Z,103000.05
2019-01-05T01:53:40.648Z,102995.70
2019-01-05T01:56:19.382Z,102994.07
2019-01-05T01:59:07.563Z,103003.90
2019-01-05T02:01:39.191Z,102998.30
2019-01-05T02:04:10.516Z,103000.44
2019-01-05T02:06:45.031Z,103004.81
2019-01-05T02:09:16.521Z,103007.95
2019-01-05T02:11:48.045Z,103021.33
2019-01-05T02:14:28.858Z,103021.81
2019-01-05T02:17:17.998Z,103017.84
2019-01-05T02:20:07.093Z,103024.72
2019-01-05T02:23:21.927Z,103026.66
2019-01-05T02:26:31.214Z,103028.02
2019-01-05T02:29:31.377Z,103030.72
2019-01-05T02:32:28.163Z,103040.41
2019-01-05T02:35:17.360Z,103034.80
2019-01-05T02:38:15.327Z,103044.52
2019-01-05T02:40:52.114Z,103036.48
2019-01-05T02:43:47.429Z,103042.00
2019-01-05T02:46:51.580Z,103045.67
2019-01-05T02:49:43.776Z,103047.61
2019-01-05T02:52:26.652Z,103051.88
2019-01-05T02:55:32.541Z,103052.55
2019-01-05T02:58:31.779Z,103047.33
2019-01-05T03:01:21.075Z,103047.84
2019-01-05T03:04:19.088Z,103046.69
2019-01-05T03:07:14.287Z,103048.62
2019-01-05T03:10:06.635Z,103043.30
2019-01-05T03:12:46.405Z,103045.91
2019-01-05T03:15:32.770Z,103043.42
2019-01-05T03:18:35.600Z,103041.48
2019-01-05T03:21:18.977Z,103036.75
2019-01-05T03:24:01.488Z,103041.68
2019-01-05T03:26:45.212Z,103032.88
2019-01-05T03:30:01.263Z,103032.20
2019-01-05T03:33:04.109Z,103032.91
2019-01-05T03:35:55.355Z,103027.10
2019-01-05T03:38:34.885Z,103023.81
2019-01-05T03:41:30.152Z,103026.78
2019-01-05T03:44:16.238Z,103019.14
2019-01-05T03:47:08.277Z,103017.53
2019-01-05T03:50:07.197Z,103016.08
2019-01-05T03:53:00.983Z,103010.17
2019-01-05T03:56:22.191Z,103008.52
2019-01-05T03:59:30.603Z,103009.97
2019-01-05T04:02:24.820Z,103005.33
2019-01-05T04:05:19.589Z,103006.11
2019-01-05T04:07:53.730Z,103002.14
2019-01-05T04:10:57.693Z,103000.98
2019-01-05T04:13:50.712Z,103005.52
2019-01-05T04:17:14.283Z,103004.17
2019-01-05T04:20:07.287Z,103002.08
2019-01-05T04:23:05.271Z,103002.45
2019-01-05T04:25:56.532Z,102999.73
2019-01-05T04:28:42.113Z,102994.98
2019-01-05T04:31:51.036Z,102989.50
2019-01-05T04:35:09.037Z,102987.95
2019-01-05T04:38:09.061Z,102979.05
2019-01-05T04:41:09.615Z,102986.59
2019-01-05T04:44:32.065Z,102983.89
2019-01-05T04:47:15.203Z,102981.48
2019-01-05T04:49:58.743Z,102984.19
2019-01-05T04:52:49.603Z,102982.36
2019-01-05T04:55:48.804Z,102981.00
2019-01-05T04:58:40.672Z,102972.88
2019-01-05T05:01:53.576Z,102979.35
2019-01-05T05:04:48.646Z,102981.67
2019-01-05T05:07:42.531Z,102972.00
2019-01-05T05:10:35.106Z,102969.58
2019-01-05T05:13:48.661Z,102970.92
2019-01-05T05:16:48.575Z,102971.53
2019-01-05T05:19:47.368Z,102973.46
2019-01-05T05:22:47.164Z,102983.31
2019-01-05T05:25:41.349Z,102990.56
2019-01-05T05:28:32.004Z,102995.28
2019-01-05T05:31:24.599Z,103001.27
2019-01-05T05:34:10.260Z,102994.69
2019-01-05T05:37:07.105Z,103003.94
2019-01-05T05:40:29.305Z,103004.12
2019-01-05T05:43:13.208Z,103007.22
2019-01-05T05:46:23.091Z,103008.28
2019-01-05T05:49:49.279Z,103016.48
2019-01-05T05:52:26.627Z,103017.62
2019-01-05T05:55:22.621Z,103022.24
2019-01-05T05:58:05.675Z,103017.31
2019-01-05T06:01:20.396Z,103026.78
2019-01-05T06:04:07.350Z,103022.24
2019-01-05T06:07:04.248Z,103022.54
2019-01-05T06:10:19.743Z,103019.63
2019-01-05T06:13:14.672Z,103024.16
2019-01-05T06:15:48.517Z,103018.93
2019-01-05T06:18:31.251Z,103016.80
2019-01-05T06:21:23.064Z,103026.73
2019-01-05T06:24:38.219Z,103026.83
2019-01-05T06:27:34.625Z,103028.35
2019-01-05T06:30:34.380Z,103034.33
2019-01-05T06:33:32.099Z,103043.52
2019-01-05T06:36:29.381Z,103047.17
2019-01-05T06:39:44.267Z,103047.73
2019-01-05T06:42:30.410Z,103046.86
2019-01-05T06:45:36.985Z,103047.83
2019-01-05T06:48:45.789Z,103048.39
2019-01-05T06:51:39.212Z,103045.20
2019-01-05T06:54:38.415Z,103047.13
2019-01-05T06:57:29.309Z,103052.22
2019-01-05T07:00:25.485Z,103049.78
2019-01-05T07:03:16.082Z,103055.58
2019-01-05T07:06:09.637Z,103053.36
2019-01-05T07:09:27.837Z,103058.84
2019-01-05T07:12:25.277Z,103050.55
2019-01-05T07:15:01.709Z,103054.48
2019-01-05T07:18:00.929Z,103060.76
2019-01-05T07:21:04.135Z,103049.08
2019-01-05T07:23:58.034Z,103050.95
2019-01-05T07:26:57.526Z,103051.11
2019-01-05T07:30:10.408Z,103054.86
2019-01-05T07:33:01.789Z,103056.30
2019-01-05T07:35:52.329Z,103055.59
2019-01-05T07:38:54.275Z,103064.27
2019-01-05T07:41:47.163Z,103064.82
2019-01-05T07:44:35.893Z,103070.70
2019-01-05T07:47:35.232Z,103085.64
2019-01-05T07:50:51.657Z,103092.87
2019-01-05T07:53:53.914Z,103094.70
2019-01-05T07:57:02.777Z,103094.50
2019-01-05T08:00:17.508Z,103093.09
2019-01-05T08:03:29.105Z,103096.04
2019-01-05T08:06:31.815Z,103099.78
2019-01-05T08:09:32.652Z,103102.39
2019-01-05T08:12:32.397Z,103106.84
2019-01-05T08:15:35.682Z,103103.02
2019-01-05T08:18:32.096Z,103111.91
2019-01-05T08:21:53.449Z,103104.52
2019-01-05T08:24:42.160Z,103103.48
2019-01-05T08:27:39.811Z,103103.98
2019-01-05T08:30:52.735Z,103112.62
2019-01-05T08:33:49.983Z,103097.91
2019-01-05T08:36:30.243Z,103100.55
2019-01-05T08:39:20.028Z,103102.99
2019-01-05T08:42:30.681Z,103108.92
2019-01-05T08:45:39.393Z,103111.25
2019-01-05T08:48:38.211Z,103108.52
2019-01-05T08:51:21.165Z,103114.15
2019-01-05T08:54:32.723Z,103112.36
2019-01-05T08:57:42.931Z,103111.89
2019-01-05T09:00:47.094Z,103116.86
2019-01-05T09:03:44.895Z,103127.80
2019-01-05T09:06:44.391Z,103129.80
2019-01-05T09:09:54.074Z,103132.13
2019-01-05T09:12:47.777Z,103136.70
2019-01-05T09:16:10.088Z,103138.09
2019-01-05T09:19:17.167Z,103141.67
2019-01-05T09:22:29.151Z,103155.99
2019-01-05T09:25:26.087Z,103159.66
2019-01-05T09:28:08.761Z,103168.19
2019-01-05T09:31:04.132Z,103169.14
2019-01-05T09:34:12.566Z,103171.33
2019-01-05T09:37:38.651Z,103172.35
2019-01-05T09:40:34.984Z,103174.91
2019-01-05T09:43:32.880Z,103186.77
2019-01-05T09:46:38.427Z,103193.45
2019-01-05T09:49:34.934Z,103195.44
2019-01-05T09:52:30.159Z,103202.64
2019-01-05T09:55:54.494Z,103200.42
2019-01-05T09:59:12.093Z,103204.73
2019-01-05T10:02:36.047Z,103212.63
2019-01-05T10:05:15.462Z,103210.94
2019-01-05T10:08:28.381Z,103217.91
2019-01-05T10:11:35.771Z,103204.94
2019-01-05T10:14:43.363Z,103219.64
2019-01-05T10:18:06.428Z,103210.78
2019-01-05T10:21:18.165Z,103205.80
2019-01-05T10:24:28.600Z,103208.61
2019-01-05T10:27:14.003Z,103202.95
2019-01-05T10:30:37.962Z,103202.59
2019-01-05T10:33:29.838Z,103207.81
2019-01-05T10:36:20.447Z,103203.52
2019-01-05T10:39:15.867Z,103193.64
2019-01-05T10:42:11.107Z,103195.78
2019-01-05T10:45:20.012Z,103183.02
2019-01-05T10:48:15.209Z,103182.55
2019-01-05T10:51:22.632Z,103180.52
2019-01-05T10:54:22.280Z,103176.05
2019-01-05T10:57:22.044Z,103165.80
2019-01-05T11:00:28.192Z,103169.75
2019-01-05T11:03:51.747Z,103165.77
2019-01-05T11:06:45.389Z,103166.08
2019-01-05T11:09:50.033Z,103159.64
2019-01-05T11:12:51.101Z,103156.37
2019-01-05T11:15:48.779Z,103157.09
2019-01-05T11:18:34.421Z,103154.56
2019-01-05T11:21:42.744Z,103159.15
2019-01-05T11:24:39.159Z,103157.17
2019-01-05T11:27:33.664Z,103153.54
2019-01-05T11:30:22.731Z,103151.26
2019-01-05T11:33:19.456Z,103148.47
2019-01-05T11:36:18.118Z,103143.58
2019-01-05T11:39:12.866Z,103138.68
2019-01-05T11:41:54.016Z,103138.06
2019-01-05T11:44:43.118Z,103136.25
2019-01-05T11:48:03.828Z,103130.95
2019-01-05T11:50:47.681Z,103126.34
2019-01-05T11:53:42.011Z,103112.59
2019-01-05T11:56:43.667Z,103113.73
2019-01-05T11:59:40.065Z,103106.50
2019-01-05T12:02:33.192Z,103103.77
2019-01-05T12:05:19.823Z,103099.47
2019-01-05T12:08:34.756Z,103098.25
2019-01-05T12:11:40.855Z,103087.73
2019-01-05T12:14:55.812Z,103082.02
2019-01-05T12:17:48.639Z,103076.28
2019-01-05T12:20:49.582Z,103071.25
2019-01-05T12:23:35.535Z,103064.50
2019-01-05T12:26:36.911Z,103063.92
2019-01-05T12:29:57.790Z,103053.70
2019-01-05T12:32:48.380Z,103054.33
2019-01-05T12:35:47.447Z,103051.81
2019-01-05T12:38:52.164Z,103052.27
2019-01-05T12:42:07.243Z,103043.20
2019-01-05T12:44:59.536Z,103035.91
2019-01-05T12:47:55.886Z,103036.84
2019-01-05T12:50:52.236Z,103035.00
2019-01-05T12:54:02.648Z,103031.81
2019-01-05T12:57:13.156Z,103018.95
2019-01-05T12:59:55.817Z,103017.28
2019-01-05T13:03:12.293Z,103015.42
2019-01-05T13:06:20.010Z,103016.92
2019-01-05T13:09:09.179Z,103010.19
2019-01-05T13:12:03.109Z,103004.74
2019-01-05T13:15:22.829Z,103005.67
2019-01-05T13:18:15.437Z,102994.69
2019-01-05T13:21:22.821Z,102985.05
2019-01-05T13:24:21.962Z,102993.37
2019-01-05T13:27:27.775Z,102992.22
2019-01-05T13:30:28.599Z,102993.08
2019-01-05T13:33:05.035Z,102986.67
2019-01-05T13:35:54.211Z,102982.06
2019-01-05T13:38:58.852Z,102982.28
2019-01-05T13:42:18.107Z,102978.89
2019-01-05T13:45:18.025Z,102979.34
2019-01-05T13:48:29.471Z,102974.52
2019-01-05T13:51:24.749Z,102975.95
2019-01-05T13:54:12.908Z,102977.54
2019-01-05T13:56:52.715Z,102979.09
2019-01-05T13:59:30.479Z,102968.06
2019-01-05T14:02:07.914Z,102969.91
2019-01-05T14:04:53.563Z,102972.42
2019-01-05T14:07:31.092Z,102967.45
2019-01-05T14:10:14.328Z,102966.73
2019-01-05T14:12:58.375Z,102966.42
2019-01-05T14:15:42.008Z,102968.28
2019-01-05T14:18:19.846Z,102968.00
2019-01-05T14:21:06.132Z,102960.55
2019-01-05T14:23:49.409Z,102964.77
2019-01-05T14:26:23.228Z,102965.03
2019-01-05T14:29:02.771Z,102971.40
2019-01-05T14:31:51.132Z,102969.78
2019-01-05T14:34:31.254Z,102970.43
2019-01-05T14:37:11.223Z,102963.48
2019-01-05T14:39:51.879Z,102967.25
2019-01-05T14:42:29.683Z,102962.02
2019-01-05T14:45:00.954Z,102963.33
2019-01-05T14:47:49.067Z,102957.57
2019-01-05T14:50:29.749Z,102959.29
2019-01-05T14:53:10.791Z,102966.44
2019-01-05T14:55:48.485Z,102967.50
2019-01-05T14:58:32.049Z,102977.22
2019-01-05T15:01:03.426Z,102973.71
2019-01-05T15:03:51.634Z,102975.75
2019-01-05T15:06:29.157Z,102973.30
2019-01-05T15:09:10.219Z,102970.86
2019-01-05T15:11:50.746Z,102961.98
2019-01-05T15:14:37.723Z,102956.63
2019-01-05T15:17:16.177Z,102950.75
2019-01-05T15:19:56.758Z,102953.33
2019-01-05T15:22:37.068Z,102960.92
2019-01-05T15:25:17.548Z,102955.13
2019-01-05T15:27:56.060Z,102963.80
2019-01-05T15:30:39.488Z,102965.09
2019-01-05T15:33:20.760Z,102969.55
2019-01-05T15:35:58.391Z,102967.91
2019-01-05T15:38:47.352Z,102963.41
2019-01-05T15:41:31.047Z,102966.27
2019-01-05T15:44:05.173Z,102970.21
2019-01-05T15:46:42.421Z,102964.38
2019-01-05T15:49:27.228Z,102977.67
2019-01-05T15:52:06.183Z,102975.83
2019-01-05T15:54:45.020Z,102976.47
2019-01-05T15:57:16.321Z,102979.38
2019-01-05T15:59:54.190Z,102976.88
2019-01-05T16:02:42.423Z,102981.54
2019-01-05T16:05:17.613Z,102985.64
2019-01-05T16:07:56.527Z,102991.25
2019-01-05T16:10:46.058Z,102983.42
2019-01-05T16:13:33.964Z,102989.76
2019-01-05T16:16:22.394Z,102992.56
2019-01-05T16:19:00.269Z,102987.52
2019-01-05T16:21:49.088Z,102982.67
2019-01-05T16:24:26.837Z,102989.20
2019-01-05T16:26:59.133Z,102988.06
2019-01-05T16:29:36.604Z,102990.97
2019-01-05T16:32:25.220Z,102990.08
2019-01-05T16:35:02.879Z,102991.59
2019-01-05T16:37:46.371Z,102992.03
2019-01-05T16:40:23.797Z,102995.31
2019-01-05T16:43:07.773Z,103002.50
2019-01-05T16:45:48.608Z,103001.69
2019-01-05T16:48:26.088Z,102998.65
2019-01-05T16:50:58.945Z,103005.64
2019-01-05T16:53:34.095Z,103002.04
2019-01-05T16:56:11.759Z,103002.16
2019-01-05T16:58:49.176Z,103000.06
2019-01-05T17:01:37.504Z,103006.57
2019-01-05T17:04:14.826Z,103001.50
2019-01-05T17:07:03.073Z,102997.78
2019-01-05T17:09:38.245Z,103005.06
2019-01-05T17:12:16.220Z,103001.33
2019-01-05T17:14:57.140Z,103003.43
2019-01-05T17:17:34.720Z,103000.69
2019-01-05T17:20:07.776Z,102998.63
2019-01-05T17:22:39.379Z,102997.05
2019-01-05T17:25:29.321Z,102996.34
2019-01-05T17:28:17.246Z,103002.66
2019-01-05T17:31:00.607Z,102996.75
2019-01-05T17:33:38.600Z,103002.48
2019-01-05T17:36:26.883Z,103008.36
2019-01-05T17:39:14.999Z,103006.19
2019-01-05T17:41:53.017Z,103007.66
2019-01-05T17:44:24.466Z,103013.11
2019-01-05T17:46:55.842Z,103016.84
2019-01-05T17:49:34.102Z,103021.87
2019-01-05T17:52:23.204Z,103026.83
2019-01-05T17:55:11.925Z,103027.39
2019-01-05T17:58:00.493Z,103037.01
2019-01-05T18:00:43.817Z,103039.39
2019-01-05T18:03:14.970Z,103039.72
2019-01-05T18:06:05.567Z,103042.48
2019-01-05T18:08:49.098Z,103050.95
2019-01-05T18:11:26.831Z,103048.71
2019-01-05T18:13:58.574Z,103053.69
2019-01-05T18:16:46.925Z,103056.73
2019-01-05T18:19:34.911Z,103055.56
2019-01-05T18:22:18.699Z,103057.97
2019-01-05T18:24:56.021Z,103061.75
2019-01-05T18:27:34.006Z,103056.22
2019-01-05T18:30:08.947Z,103061.30
2019-01-05T18:32:55.879Z,103059.12
2019-01-05T18:35:27.103Z,103053.98
2019-01-05T18:38:04.802Z,103068.27
2019-01-05T18:40:51.425Z,103063.41
2019-01-05T18:43:39.712Z,103057.30
2019-01-05T18:46:28.327Z,103056.91
2019-01-05T18:49:12.334Z,103058.54
2019-01-05T18:51:43.578Z,103059.37
2019-01-05T18:54:31.396Z,103069.16
2019-01-05T18:57:08.908Z,103064.50
2019-01-05T18:59:42.744Z,103064.84
2019-01-05T19:02:14.096Z,103065.02
2019-01-05T19:04:45.292Z,103063.69
2019-01-05T19:07:33.239Z,103067.00
2019-01-05T19:10:04.693Z,103064.80
2019-01-05T19:12:50.886Z,103065.83
2019-01-05T19:15:27.169Z,103068.39
2019-01-05T19:18:04.712Z,103070.55
2019-01-05T19:20:45.047Z,103069.72
2019-01-05T19:23:34.851Z,103071.61
2019-01-05T19:26:15.125Z,103070.40
2019-01-05T19:28:55.992Z,103072.58
2019-01-05T19:31:35.627Z,103075.83
2019-01-05T19:34:20.238Z,103071.67
2019-01-05T19:36:58.936Z,103076.67
2019-01-05T19:39:46.824Z,103074.73
2019-01-05T19:42:18.042Z,103069.92
2019-01-05T19:45:06.043Z,103066.20
2019-01-05T19:47:41.053Z,103068.06
2019-01-05T19:50:12.445Z,103068.11
2019-01-05T19:53:01.134Z,103072.34
2019-01-05T19:55:32.630Z,103073.25
2019-01-05T19:58:03.598Z,103073.63
2019-01-05T20:00:34.586Z,103085.69
2019-01-05T20:03:08.829Z,103080.73
2019-01-05T20:05:40.012Z,103086.17
2019-01-05T20:08:28.232Z,103084.72
2019-01-05T20:11:15.688Z,103082.48
2019-01-05T20:13:54.688Z,103085.83
2019-01-05T20:16:39.113Z,103083.72
2019-01-05T20:19:20.217Z,103089.04
2019-01-05T20:21:57.414Z,103081.37
2019-01-05T20:24:37.956Z,103082.09
2019-01-05T20:27:24.111Z,103080.97
2019-01-05T20:29:59.424Z,103080.75
2019-01-05T20:32:36.861Z,103085.31
2019-01-05T20:35:11.053Z,103085.88
2019-01-05T20:37:42.471Z,103092.44
2019-01-05T20:40:30.552Z,103090.55
2019-01-05T20:43:01.855Z,103091.77
2019-01-05T20:45:50.060Z,103087.41
2019-01-05T20:48:39.650Z,103085.41
2019-01-05T20:51:22.492Z,103089.12
2019-01-05T20:54:12.221Z,103085.88
2019-01-05T20:56:55.772Z,103083.38
2019-01-05T20:59:43.590Z,103087.31
2019-01-05T21:02:30.516Z,103082.14
2019-01-05T21:05:11.404Z,103078.02
2019-01-05T21:07:59.676Z,103076.40
2019-01-05T21:10:39.242Z,103082.03
2019-01-05T21:13:10.474Z,103085.13
2019-01-05T21:15:58.079Z,103083.24
2019-01-05T21:18:42.160Z,103093.59
2019-01-05T21:21:13.494Z,103087.98
2019-01-05T21:24:02.013Z,103093.39
2019-01-05T21:26:42.466Z,103097.91
2019-01-05T21:29:14.156Z,103097.78
2019-01-05T21:31:52.092Z,103097.73
2019-01-05T21:34:41.779Z,103096.55
2019-01-05T21:37:19.301Z,103100.34
2019-01-05T21:39:56.110Z,103106.59
2019-01-05T21:42:33.689Z,103108.01
2019-01-05T21:45:04.747Z,103102.06
2019-01-05T21:47:52.953Z,103106.35
2019-01-05T21:50:23.975Z,103099.55
2019-01-05T21:52:54.919Z,103099.88
2019-01-05T21:55:40.992Z,103098.52
2019-01-05T21:58:30.158Z,103096.23
2019-01-05T22:01:13.648Z,103100.66
2019-01-05T22:03:50.826Z,103099.56
2019-01-05T22:06:34.238Z,103104.83
2019-01-05T22:09:22.282Z,103100.97
2019-01-05T22:11:59.627Z,103099.09
2019-01-05T22:14:37.238Z,103100.48
2019-01-05T22:17:14.715Z,103102.37
2019-01-05T22:20:04.883Z,103099.02
2019-01-05T22:22:42.423Z,103097.11
2019-01-05T22:25:30.419Z,103097.91
2019-01-05T22:28:01.448Z,103095.02
2019-01-05T22:30:41.647Z,103091.92
2019-01-05T22:33:29.946Z,103091.02
2019-01-05T22:36:23.670Z,103092.75
2019-01-05T22:39:11.610Z,103087.24
2019-01-05T22:41:48.778Z,103088.70
2019-01-05T22:44:35.027Z,103088.17
2019-01-05T22:47:12.179Z,103089.34
2019-01-05T22:50:00.927Z,103080.55
2019-01-05T22:52:31.897Z,103078.91
2019-01-05T22:55:12.109Z,103075.53
2019-01-05T22:57:42.938Z,103064.78
2019-01-05T23:00:20.644Z,103061.53
2019-01-05T23:02:53.999Z,103057.59
2019-01-05T23:05:42.011Z,103057.89
2019-01-05T23:08:22.574Z,103061.42
2019-01-05T23:11:00.283Z,103057.95
2019-01-05T23:13:31.403Z,103052.73
2019-01-05T23:16:19.921Z,103050.51
2019-01-05T23:19:03.585Z,103044.60
2019-01-05T23:21:51.722Z,103043.14
2019-01-05T23:24:26.428Z,103038.64
2019-01-05T23:27:03.815Z,103042.52
2019-01-05T23:29:47.680Z,103037.88
2019-01-05T23:32:18.663Z,103028.11
2019-01-05T23:34:59.419Z,103034.70
2019-01-05T23:37:49.469Z,103029.22
2019-01-05T23:40:20.541Z,103023.81
2019-01-05T23:42:51.500Z,103021.88
2019-01-05T23:45:29.958Z,103021.34
2019-01-05T23:48:04.252Z,103024.24
2019-01-05T23:50:52.511Z,103021.34
2019-01-05T23:53:23.360Z,103023.08
2019-01-05T23:56:09.761Z,103014.22
2019-01-05T23:58:57.718Z,103017.51
